createdAt,value
2018-06-14T00:02:11.758Z,15.92
2018-06-14T00:04:40.675Z,15.92
2018-06-14T00:07:08.412Z,15.90
2018-06-14T00:09:37.323Z,15.95
2018-06-14T00:12:05.076Z,15.96
2018-06-14T00:14:33.987Z,16.01
2018-06-14T00:17:02.310Z,16.03
2018-06-14T00:19:30.641Z,16.08
2018-06-14T00:21:58.974Z,16.17
2018-06-14T00:24:27.290Z,16.27
2018-06-14T00:26:55.050Z,16.35
2018-06-14T00:29:23.953Z,16.40
2018-06-14T00:31:51.717Z,16.43
2018-06-14T00:34:20.683Z,16.42
2018-06-14T00:36:49.338Z,16.43
2018-06-14T00:39:17.891Z,16.38
2018-06-14T00:41:46.012Z,16.31
2018-06-14T00:44:13.757Z,16.24
2018-06-14T00:46:42.081Z,16.22
2018-06-14T00:49:10.414Z,16.21
2018-06-14T00:51:39.324Z,16.18
2018-06-14T00:54:07.654Z,16.12
2018-06-14T00:56:35.401Z,16.09
2018-06-14T00:59:04.305Z,16.12
2018-06-14T01:01:32.851Z,16.13
2018-06-14T01:04:00.968Z,16.07
2018-06-14T01:06:29.303Z,16.00
2018-06-14T01:08:57.613Z,15.91
2018-06-14T01:11:26.556Z,15.83
2018-06-14T01:13:53.698Z,15.78
2018-06-14T01:16:22.020Z,15.74
2018-06-14T01:18:50.361Z,15.73
2018-06-14T01:21:18.688Z,15.71
2018-06-14T01:23:47.588Z,15.68
2018-06-14T01:26:15.913Z,15.68
2018-06-14T01:28:43.667Z,15.66
2018-06-14T01:31:11.992Z,15.67
2018-06-14T01:33:40.908Z,15.68
2018-06-14T01:36:09.269Z,15.64
2018-06-14T01:38:37.017Z,15.66
2018-06-14T01:41:05.922Z,15.66
2018-06-14T01:43:34.253Z,15.64
2018-06-14T01:46:02.593Z,15.67
2018-06-14T01:48:30.911Z,15.68
2018-06-14T01:50:59.245Z,15.68
2018-06-14T01:53:27.568Z,15.62
2018-06-14T01:55:55.320Z,15.57
2018-06-14T01:58:24.236Z,15.51
2018-06-14T02:00:53.216Z,15.47
2018-06-14T02:03:20.897Z,15.44
2018-06-14T02:05:49.219Z,15.40
2018-06-14T02:08:17.553Z,15.37
2018-06-14T02:10:45.870Z,15.34
2018-06-14T02:13:13.630Z,15.33
2018-06-14T02:15:42.531Z,15.35
2018-06-14T02:18:11.202Z,15.43
2018-06-14T02:20:39.535Z,15.47
2018-06-14T02:23:07.874Z,15.52
2018-06-14T02:25:36.236Z,15.54
2018-06-14T02:28:04.560Z,15.58
2018-06-14T02:30:32.882Z,15.55
2018-06-14T02:33:00.627Z,15.46
2018-06-14T02:35:28.997Z,15.39
2018-06-14T02:37:57.354Z,15.31
2018-06-14T02:40:26.179Z,15.26
2018-06-14T02:42:54.585Z,15.22
2018-06-14T02:45:22.919Z,15.15
2018-06-14T02:47:50.683Z,15.11
2018-06-14T02:50:19.590Z,15.04
2018-06-14T02:52:47.346Z,15.04
2018-06-14T02:55:16.259Z,15.07
2018-06-14T02:57:44.007Z,15.16
2018-06-14T03:00:12.880Z,15.25
2018-06-14T03:02:40.687Z,15.35
2018-06-14T03:05:09.723Z,15.45
2018-06-14T03:07:38.047Z,15.49
2018-06-14T03:10:05.804Z,15.51
2018-06-14T03:12:34.747Z,15.60
2018-06-14T03:15:03.106Z,15.58
2018-06-14T03:17:31.444Z,15.53
2018-06-14T03:19:59.194Z,15.53
2018-06-14T03:22:28.320Z,15.63
2018-06-14T03:24:56.640Z,15.72
2018-06-14T03:27:24.974Z,15.70
2018-06-14T03:29:53.521Z,15.65
2018-06-14T03:32:21.268Z,15.66
2018-06-14T03:34:50.195Z,15.74
2018-06-14T03:37:17.940Z,15.86
2018-06-14T03:39:46.859Z,15.90
2018-06-14T03:42:15.221Z,15.86
2018-06-14T03:44:42.966Z,15.88
2018-06-14T03:47:11.887Z,15.98
2018-06-14T03:49:40.205Z,16.18
2018-06-14T03:52:07.953Z,16.24
2018-06-14T03:54:36.282Z,16.12
2018-06-14T03:57:04.615Z,16.09
2018-06-14T03:59:33.522Z,16.14
2018-06-14T04:02:02.073Z,16.28
2018-06-14T04:04:29.602Z,16.37
2018-06-14T04:06:58.772Z,16.39
2018-06-14T04:09:26.292Z,16.31
2018-06-14T04:11:55.473Z,16.21
2018-06-14T04:14:23.217Z,16.15
2018-06-14T04:16:52.130Z,16.18
2018-06-14T04:19:19.876Z,16.28
2018-06-14T04:21:48.777Z,16.30
2018-06-14T04:24:17.114Z,16.25
2018-06-14T04:26:45.428Z,16.15
2018-06-14T04:29:13.776Z,16.11
2018-06-14T04:31:42.093Z,16.15
2018-06-14T04:34:10.407Z,16.24
2018-06-14T04:36:38.165Z,16.35
2018-06-14T04:39:06.478Z,16.27
2018-06-14T04:41:34.868Z,16.31
2018-06-14T04:44:03.778Z,16.40
2018-06-14T04:46:32.116Z,16.43
2018-06-14T04:49:00.437Z,16.49
2018-06-14T04:51:28.182Z,16.62
2018-06-14T04:53:57.087Z,16.73
2018-06-14T04:56:24.859Z,16.71
2018-06-14T04:58:53.744Z,16.65
2018-06-14T05:01:21.716Z,16.65
2018-06-14T05:03:50.400Z,16.61
2018-06-14T05:06:18.719Z,16.58
2018-06-14T05:08:47.044Z,16.61
2018-06-14T05:11:15.199Z,16.67
2018-06-14T05:13:43.160Z,16.66
2018-06-14T05:16:12.078Z,16.65
2018-06-14T05:18:39.824Z,16.65
2018-06-14T05:21:08.743Z,16.62
2018-06-14T05:23:37.124Z,16.67
2018-06-14T05:26:05.388Z,16.77
2018-06-14T05:28:33.726Z,16.86
2018-06-14T05:31:02.068Z,16.90
2018-06-14T05:33:30.404Z,16.93
2018-06-14T05:35:58.186Z,16.95
2018-06-14T05:38:26.478Z,17.04
2018-06-14T05:40:55.385Z,17.09
2018-06-14T05:43:23.780Z,17.18
2018-06-14T05:45:52.854Z,17.24
2018-06-14T05:48:20.710Z,17.29
2018-06-14T05:50:48.679Z,17.35
2018-06-14T05:53:17.570Z,17.34
2018-06-14T05:55:47.341Z,17.31
2018-06-14T05:58:15.681Z,17.26
2018-06-14T06:00:44.589Z,17.23
2018-06-14T06:03:12.927Z,17.30
2018-06-14T06:05:41.259Z,17.38
2018-06-14T06:08:09.584Z,17.43
2018-06-14T06:10:38.776Z,17.45
2018-06-14T06:13:06.477Z,17.45
2018-06-14T06:15:35.403Z,17.51
2018-06-14T06:18:03.182Z,17.60
2018-06-14T06:20:31.546Z,17.64
2018-06-14T06:22:59.892Z,17.61
2018-06-14T06:25:27.642Z,17.57
2018-06-14T06:27:56.560Z,17.65
2018-06-14T06:30:25.471Z,17.58
2018-06-14T06:32:53.818Z,17.53
2018-06-14T06:35:24.546Z,17.61
2018-06-14T06:37:52.877Z,17.70
2018-06-14T06:40:21.710Z,17.72
2018-06-14T06:42:49.608Z,17.76
2018-06-14T06:48:08.073Z,17.85
2018-06-14T06:50:37.735Z,17.93
2018-06-14T06:53:06.075Z,18.10
2018-06-14T06:55:34.420Z,18.25
2018-06-14T06:58:02.374Z,18.31
2018-06-14T07:00:31.078Z,18.34
2018-06-14T07:02:58.824Z,18.34
2018-06-14T07:05:27.736Z,18.38
2018-06-14T07:07:55.495Z,18.51
2018-06-14T07:10:23.813Z,18.45
2018-06-14T07:12:52.740Z,18.40
2018-06-14T07:15:21.108Z,18.47
2018-06-14T07:17:48.880Z,18.46
2018-06-14T07:20:17.799Z,18.56
2018-06-14T07:22:46.136Z,18.71
2018-06-14T07:25:14.472Z,18.70
2018-06-14T07:27:42.861Z,18.71
2018-06-14T07:30:12.533Z,18.73
2018-06-14T07:32:39.523Z,18.69
2018-06-14T07:35:07.877Z,18.73
2018-06-14T07:37:35.642Z,18.85
2018-06-14T07:40:04.570Z,19.01
2018-06-14T07:42:33.143Z,19.14
2018-06-14T07:45:01.252Z,19.21
2018-06-14T07:47:29.651Z,19.23
2018-06-14T07:49:57.994Z,19.21
2018-06-14T07:52:26.346Z,19.29
2018-06-14T07:54:54.698Z,19.39
2018-06-14T07:57:24.585Z,19.43
2018-06-14T07:59:52.919Z,19.55
2018-06-14T08:02:20.723Z,19.59
2018-06-14T08:04:49.660Z,19.59
2018-06-14T08:07:18.316Z,19.63
2018-06-14T08:09:46.074Z,19.71
2018-06-14T08:12:15.022Z,19.74
2018-06-14T08:14:44.209Z,19.87
2018-06-14T08:17:12.532Z,19.99
2018-06-14T08:19:40.867Z,20.14
2018-06-14T08:22:09.199Z,20.23
2018-06-14T08:24:37.543Z,20.06
2018-06-14T08:27:05.862Z,19.95
2018-06-14T08:29:34.181Z,19.96
2018-06-14T08:32:02.537Z,20.03
2018-06-14T08:34:30.889Z,20.20
2018-06-14T08:36:59.217Z,20.30
2018-06-14T08:39:35.337Z,20.45
2018-06-14T08:41:59.679Z,20.62
2018-06-14T08:44:28.178Z,20.75
2018-06-14T08:46:56.508Z,20.74
2018-06-14T08:49:25.005Z,20.60
2018-06-14T08:51:53.341Z,20.40
2018-06-14T08:54:21.702Z,20.29
2018-06-14T08:56:50.031Z,20.03
2018-06-14T08:59:18.402Z,19.92
2018-06-14T09:04:46.376Z,19.79
2018-06-14T09:07:14.712Z,19.80
2018-06-14T09:09:42.822Z,19.82
2018-06-14T09:12:11.459Z,19.76
2018-06-14T09:14:39.568Z,19.77
2018-06-14T09:17:07.876Z,19.70
2018-06-14T09:19:36.195Z,19.69
2018-06-14T09:22:04.541Z,19.71
2018-06-14T09:24:32.883Z,19.75
2018-06-14T09:27:01.221Z,19.75
2018-06-14T09:29:28.970Z,19.73
2018-06-14T09:31:57.899Z,19.73
2018-06-14T09:34:26.227Z,19.75
2018-06-14T09:36:54.563Z,19.76
2018-06-14T09:39:22.917Z,19.74
2018-06-14T09:41:50.855Z,19.79
2018-06-14T09:44:20.262Z,19.80
2018-06-14T09:46:49.418Z,19.81
2018-06-14T09:49:39.137Z,19.84
2018-06-14T09:52:06.854Z,19.86
2018-06-14T09:54:35.231Z,19.92
2018-06-14T09:57:03.548Z,19.98
2018-06-14T09:59:32.720Z,20.02
2018-06-14T10:02:00.247Z,19.99
2018-06-14T10:04:29.155Z,20.03
2018-06-14T10:06:57.491Z,20.10
2018-06-14T10:09:25.840Z,20.14
2018-06-14T10:11:54.195Z,20.19
2018-06-14T10:14:22.540Z,20.25
2018-06-14T10:16:50.887Z,20.30
2018-06-14T10:19:19.221Z,20.38
2018-06-14T10:21:47.569Z,20.47
2018-06-14T10:24:16.169Z,20.54
2018-06-14T10:26:44.508Z,20.58
2018-06-14T10:29:12.845Z,20.60
2018-06-14T10:31:41.173Z,20.63
2018-06-14T10:34:09.531Z,20.66
2018-06-14T10:36:37.847Z,20.77
2018-06-14T10:39:06.194Z,20.83
2018-06-14T10:41:34.537Z,20.86
2018-06-14T10:44:02.875Z,20.91
2018-06-14T10:46:31.213Z,20.95
2018-06-14T10:48:59.587Z,21.01
2018-06-14T10:51:27.952Z,21.10
2018-06-14T10:53:56.300Z,21.20
2018-06-14T10:56:25.841Z,21.28
2018-06-14T10:58:56.577Z,21.34
2018-06-14T11:01:23.242Z,21.35
2018-06-14T11:04:00.867Z,21.41
2018-06-14T11:06:29.092Z,21.43
2018-06-14T11:09:00.595Z,21.44
2018-06-14T11:11:28.974Z,21.51
2018-06-14T11:13:57.297Z,21.52
2018-06-14T11:16:25.055Z,21.50
2018-06-14T11:18:53.385Z,21.45
2018-06-14T11:21:22.341Z,21.42
2018-06-14T11:23:50.672Z,21.43
2018-06-14T11:26:18.994Z,21.42
2018-06-14T11:28:47.342Z,21.40
2018-06-14T11:31:15.670Z,21.37
2018-06-14T11:33:44.016Z,21.34
2018-06-14T11:36:12.337Z,21.33
2018-06-14T11:38:40.667Z,21.40
2018-06-14T11:41:08.995Z,21.47
2018-06-14T11:43:37.309Z,21.58
2018-06-14T11:46:05.664Z,21.63
2018-06-14T11:48:33.985Z,21.79
2018-06-14T11:51:02.322Z,21.97
2018-06-14T11:53:30.132Z,22.14
2018-06-14T11:55:59.040Z,22.25
2018-06-14T11:58:27.381Z,22.29
2018-06-14T12:00:55.719Z,22.30
2018-06-14T12:03:24.044Z,22.30
2018-06-14T12:05:52.473Z,22.35
2018-06-14T12:08:20.851Z,22.49
2018-06-14T12:10:49.508Z,22.55
2018-06-14T12:13:17.845Z,22.55
2018-06-14T12:15:45.602Z,22.51
2018-06-14T12:18:13.916Z,22.44
2018-06-14T12:20:42.837Z,22.45
2018-06-14T12:23:11.170Z,22.40
2018-06-14T12:25:38.906Z,22.33
2018-06-14T12:28:08.143Z,22.25
2018-06-14T12:30:36.479Z,22.19
2018-06-14T12:33:04.809Z,22.11
2018-06-14T12:35:33.172Z,22.01
2018-06-14T12:38:00.913Z,22.00
2018-06-14T12:40:29.840Z,22.01
2018-06-14T12:42:58.165Z,22.04
2018-06-14T12:45:26.498Z,22.05
2018-06-14T12:47:54.264Z,22.07
2018-06-14T12:50:23.175Z,22.09
2018-06-14T12:52:51.760Z,22.08
2018-06-14T12:55:20.154Z,22.09
2018-06-14T12:57:48.482Z,22.11
2018-06-14T13:00:16.820Z,22.14
2018-06-14T13:02:44.572Z,22.15
2018-06-14T13:05:13.487Z,22.12
2018-06-14T13:07:41.808Z,22.05
2018-06-14T13:10:10.976Z,22.03
2018-06-14T13:12:38.153Z,21.99
2018-06-14T13:15:07.064Z,21.96
2018-06-14T13:17:35.637Z,21.96
2018-06-14T13:20:03.379Z,22.00
2018-06-14T13:22:32.511Z,22.10
2018-06-14T13:25:00.611Z,22.26
2018-06-14T13:27:28.365Z,22.43
2018-06-14T13:29:56.684Z,22.60
2018-06-14T13:32:25.010Z,23.01
2018-06-14T13:34:53.480Z,23.45
2018-06-14T13:37:21.907Z,23.59
2018-06-14T13:39:50.736Z,23.80
2018-06-14T13:42:19.064Z,24.11
2018-06-14T13:44:46.811Z,24.27
2018-06-14T13:47:15.730Z,24.20
2018-06-14T13:49:44.058Z,24.13
2018-06-14T13:52:12.394Z,24.18
2018-06-14T13:54:40.136Z,24.12
2018-06-14T13:57:09.077Z,23.99
2018-06-14T13:59:37.627Z,23.92
2018-06-14T14:02:05.725Z,23.89
2018-06-14T14:04:34.076Z,23.85
2018-06-14T14:07:02.410Z,23.83
2018-06-14T14:09:30.157Z,23.78
2018-06-14T14:11:59.097Z,23.73
2018-06-14T14:14:27.450Z,23.61
2018-06-14T14:16:55.767Z,23.46
2018-06-14T14:19:24.704Z,23.32
2018-06-14T14:21:53.024Z,23.23
2018-06-14T14:24:21.356Z,23.18
2018-06-14T14:26:49.696Z,23.25
2018-06-14T14:29:18.054Z,23.34
2018-06-14T14:31:46.442Z,23.36
2018-06-14T14:34:14.771Z,23.38
2018-06-14T14:36:42.526Z,23.41
2018-06-14T14:39:11.591Z,23.48
2018-06-14T14:41:40.139Z,23.53
2018-06-14T14:44:09.904Z,23.61
2018-06-14T14:46:46.203Z,23.64
2018-06-14T14:49:17.516Z,23.66
2018-06-14T14:51:46.696Z,23.95
2018-06-14T14:54:17.603Z,24.65
2018-06-14T14:56:46.692Z,24.97
2018-06-14T14:59:14.973Z,25.09
2018-06-14T15:01:43.333Z,25.08
2018-06-14T15:04:11.912Z,24.85
2018-06-14T15:06:41.788Z,24.57
2018-06-14T15:09:10.232Z,24.32
2018-06-14T15:11:38.558Z,24.14
2018-06-14T15:14:06.900Z,23.95
2018-06-14T15:16:35.216Z,23.73
2018-06-14T15:19:03.282Z,23.50
2018-06-14T15:21:31.876Z,23.33
2018-06-14T15:24:00.449Z,23.15
2018-06-14T15:26:29.078Z,23.01
2018-06-14T15:28:59.255Z,22.85
2018-06-14T15:31:27.556Z,22.74
2018-06-14T15:33:55.344Z,22.63
2018-06-14T15:36:24.207Z,22.55
2018-06-14T15:38:52.560Z,22.48
2018-06-14T15:41:20.323Z,22.45
2018-06-14T15:43:49.257Z,22.42
2018-06-14T15:46:17.616Z,22.44
2018-06-14T15:48:45.982Z,22.58
2018-06-14T15:51:14.304Z,22.72
2018-06-14T15:53:42.665Z,23.25
2018-06-14T15:56:22.304Z,23.47
2018-06-14T15:58:51.548Z,23.38
2018-06-14T16:01:20.494Z,23.24
2018-06-14T16:03:48.830Z,23.10
2018-06-14T16:06:17.203Z,22.98
2018-06-14T16:08:45.521Z,22.83
2018-06-14T16:11:13.258Z,22.69
2018-06-14T16:13:41.594Z,22.57
2018-06-14T16:16:10.495Z,22.44
2018-06-14T16:18:38.241Z,22.35
2018-06-14T16:21:07.143Z,22.25
2018-06-14T16:23:35.476Z,22.15
2018-06-14T16:26:03.292Z,22.03
2018-06-14T16:28:32.333Z,21.93
2018-06-14T16:31:00.657Z,21.84
2018-06-14T16:33:28.993Z,21.73
2018-06-14T16:35:57.311Z,21.66
2018-06-14T16:38:31.745Z,21.64
2018-06-14T16:41:00.225Z,21.63
2018-06-14T16:46:22.338Z,21.55
2018-06-14T16:48:50.514Z,21.47
2018-06-14T16:51:18.826Z,21.46
2018-06-14T16:53:47.151Z,21.47
2018-06-14T16:56:15.695Z,21.46
2018-06-14T16:58:43.859Z,21.45
2018-06-14T17:01:12.257Z,21.43
2018-06-14T17:03:40.630Z,21.42
2018-06-14T17:06:09.191Z,21.38
2018-06-14T17:08:37.301Z,21.39
2018-06-14T17:11:06.723Z,21.36
2018-06-14T17:13:35.127Z,21.32
2018-06-14T17:16:03.560Z,21.26
2018-06-14T17:18:31.852Z,21.17
2018-06-14T17:21:00.182Z,21.06
2018-06-14T17:23:28.786Z,20.96
2018-06-14T17:25:57.130Z,20.88
2018-06-14T17:28:25.475Z,20.82
2018-06-14T17:30:53.819Z,20.80
2018-06-14T17:33:22.143Z,20.80
2018-06-14T17:35:52.562Z,20.78
2018-06-14T17:38:21.257Z,20.75
2018-06-14T17:40:49.006Z,20.71
2018-06-14T17:43:17.932Z,20.69
2018-06-14T17:45:46.254Z,20.67
2018-06-14T17:48:14.017Z,20.63
2018-06-14T17:50:42.939Z,20.61
2018-06-14T17:53:11.275Z,20.55
2018-06-14T17:55:39.601Z,20.56
2018-06-14T17:58:07.368Z,20.59
2018-06-14T18:00:36.272Z,20.61
2018-06-14T18:03:05.674Z,20.61
2018-06-14T18:05:34.069Z,20.60
2018-06-14T18:08:02.391Z,20.58
2018-06-14T18:10:30.710Z,20.56
2018-06-14T18:13:00.666Z,20.57
2018-06-14T18:15:28.270Z,20.58
2018-06-14T18:17:56.610Z,20.57
2018-06-14T18:20:25.220Z,20.59
2018-06-14T18:22:53.840Z,20.62
2018-06-14T18:25:22.150Z,20.64
2018-06-14T18:27:50.516Z,20.63
2018-06-14T18:30:18.980Z,20.59
2018-06-14T18:32:47.523Z,20.55
2018-06-14T18:35:15.321Z,20.51
2018-06-14T18:37:44.242Z,20.49
2018-06-14T18:40:12.678Z,20.43
2018-06-14T18:42:41.008Z,20.39
2018-06-14T18:45:09.354Z,20.37
2018-06-14T18:47:37.702Z,20.28
2018-06-14T18:50:06.032Z,20.22
2018-06-14T18:52:33.782Z,20.16
2018-06-14T18:55:02.702Z,20.11
2018-06-14T18:57:31.061Z,20.06
2018-06-14T18:59:59.387Z,19.99
2018-06-14T19:02:27.708Z,19.90
2018-06-14T19:04:56.107Z,19.80
2018-06-14T19:07:24.573Z,19.73
2018-06-14T19:09:52.931Z,19.75
2018-06-14T19:12:21.545Z,19.74
2018-06-14T19:14:49.908Z,19.68
2018-06-14T19:17:18.324Z,19.66
2018-06-14T19:19:46.659Z,19.63
2018-06-14T19:22:14.995Z,19.49
2018-06-14T19:24:43.322Z,19.29
2018-06-14T19:27:11.662Z,19.11
2018-06-14T19:29:40.045Z,18.92
2018-06-14T19:32:08.448Z,18.75
2018-06-14T19:34:36.789Z,18.64
2018-06-14T19:37:05.116Z,18.54
2018-06-14T19:39:33.478Z,18.49
2018-06-14T19:42:01.259Z,18.33
2018-06-14T19:44:29.593Z,18.17
2018-06-14T19:46:58.506Z,18.06
2018-06-14T19:49:26.302Z,17.96
2018-06-14T19:51:55.669Z,17.95
2018-06-14T19:54:23.843Z,17.97
2018-06-14T19:56:52.752Z,17.94
2018-06-14T19:59:21.079Z,17.90
2018-06-14T20:01:52.343Z,17.84
2018-06-14T20:04:20.719Z,17.80
2018-06-14T20:06:48.544Z,17.76
2018-06-14T20:09:18.315Z,17.73
2018-06-14T20:11:46.056Z,17.72
2018-06-14T20:14:15.549Z,17.73
2018-06-14T20:16:43.305Z,17.77
2018-06-14T20:19:12.218Z,17.83
2018-06-14T20:21:39.997Z,17.87
2018-06-14T20:24:08.968Z,17.88
2018-06-14T20:26:36.785Z,17.86
2018-06-14T20:29:05.759Z,17.79
2018-06-14T20:31:34.086Z,17.72
2018-06-14T20:34:03.452Z,17.66
2018-06-14T20:36:31.787Z,17.61
2018-06-14T20:39:00.114Z,17.56
2018-06-14T20:41:27.861Z,17.55
2018-06-14T20:43:56.765Z,17.56
2018-06-14T20:46:25.110Z,17.53
2018-06-14T20:48:53.440Z,17.50
2018-06-14T20:51:21.780Z,17.52
2018-06-14T20:53:50.104Z,17.50
2018-06-14T20:56:18.434Z,17.49
2018-06-14T20:58:46.871Z,17.56
2018-06-14T21:01:15.217Z,17.50
2018-06-14T21:03:43.542Z,17.49
2018-06-14T21:06:11.279Z,17.42
2018-06-14T21:08:40.229Z,17.32
2018-06-14T21:11:08.547Z,17.27
2018-06-14T21:13:37.829Z,17.31
2018-06-14T21:16:04.901Z,17.48
2018-06-14T21:18:33.811Z,17.54
2018-06-14T21:21:01.563Z,17.59
2018-06-14T21:23:29.899Z,17.61
2018-06-14T21:25:58.805Z,17.59
2018-06-14T21:28:26.564Z,17.60
2018-06-14T21:30:55.477Z,17.60
2018-06-14T21:33:23.830Z,17.56
2018-06-14T21:35:52.134Z,17.56
2018-06-14T21:38:20.464Z,17.59
2018-06-14T21:40:48.785Z,17.58
2018-06-14T21:43:17.113Z,17.56
2018-06-14T21:45:45.441Z,17.51
2018-06-14T21:48:13.757Z,17.49
2018-06-14T21:50:42.074Z,17.52
2018-06-14T21:53:10.401Z,17.55
2018-06-14T21:55:38.718Z,17.51
2018-06-14T21:58:07.102Z,17.52
2018-06-14T22:00:35.431Z,17.50
2018-06-14T22:03:03.753Z,17.49
2018-06-14T22:05:31.494Z,17.53
2018-06-14T22:08:00.393Z,17.58
2018-06-14T22:10:28.773Z,17.62
2018-06-14T22:12:57.109Z,17.64
2018-06-14T22:15:24.851Z,17.71
2018-06-14T22:17:53.747Z,17.77
2018-06-14T22:20:22.354Z,17.80
2018-06-14T22:22:50.451Z,17.86
2018-06-14T22:25:18.775Z,17.89
2018-06-14T22:27:47.103Z,17.87
2018-06-14T22:30:15.425Z,17.86
2018-06-14T22:32:43.765Z,17.86
2018-06-14T22:35:12.105Z,17.83
2018-06-14T22:37:40.425Z,17.78
2018-06-14T22:40:08.746Z,17.70
2018-06-14T22:42:36.500Z,17.60
2018-06-14T22:45:05.413Z,17.54
2018-06-14T22:47:33.731Z,17.53
2018-06-14T22:50:02.292Z,17.54
2018-06-14T22:52:30.398Z,17.51
2018-06-14T22:54:58.968Z,17.51
2018-06-14T22:57:27.036Z,17.45
2018-06-14T22:59:55.356Z,17.37
2018-06-14T23:02:23.685Z,17.34
2018-06-14T23:04:52.007Z,17.42
2018-06-14T23:07:19.745Z,17.52
2018-06-14T23:10:00.398Z,17.55
2018-06-14T23:12:28.822Z,17.58
2018-06-14T23:14:57.155Z,17.60
2018-06-14T23:17:25.470Z,17.61
2018-06-14T23:19:53.782Z,17.59
2018-06-14T23:22:22.100Z,17.51
2018-06-14T23:24:50.426Z,17.49
2018-06-14T23:27:18.158Z,17.46
2018-06-14T23:29:47.065Z,17.47
2018-06-14T23:32:14.802Z,17.43
2018-06-14T23:34:43.718Z,17.39
2018-06-14T23:37:12.045Z,17.40
2018-06-14T23:39:40.070Z,17.38
2018-06-14T23:42:08.116Z,17.34
2018-06-14T23:44:37.010Z,17.32
2018-06-14T23:47:05.338Z,17.31
2018-06-14T23:49:33.654Z,17.33
2018-06-14T23:52:01.986Z,17.33
2018-06-14T23:54:30.312Z,17.24
2018-06-14T23:56:58.650Z,17.20
2018-06-14T23:59:26.962Z,17.23
